Time;durP1;ratioP1;P1;durP2;ratioP2;P2;SDS_P1;SDS_P2;PMS_P1;PMS_P2;Temp;Humidity;BMP_temperature;BMP_pressure;BME280_temperature;BME280_humidity;BME280_pressure;Samples;Min_cycle;Max_cycle;Signal;HPM_P1;HPM_P2
2022/01/03 00:01:33;;;;;;;0.30;0.30;;;;;;;21.90;13.05;98614.66;5056544;28;20108;-73
2022/01/03 00:03:59;;;;;;;0.35;0.30;;;;;;;21.90;13.12;98611.09;5056597;28;20101;-73
2022/01/03 00:06:24;;;;;;;0.20;0.20;;;;;;;21.91;13.12;98599.94;5056241;28;20025;-73
2022/01/03 00:08:49;;;;;;;0.30;0.30;;;;;;;21.90;13.06;98601.06;5056704;28;20025;-73
2022/01/03 00:11:19;;;;;;;0.20;0.20;;;;;;;21.92;13.11;98600.72;5056200;28;20021;-73
2022/01/03 00:13:46;;;;;;;0.40;0.40;;;;;;;21.91;13.04;98605.38;5056227;28;20048;-73
2022/01/03 00:16:11;;;;;;;0.20;0.20;;;;;;;21.89;13.16;98595.91;5055922;28;20564;-73
2022/01/03 00:18:37;;;;;;;0.20;0.20;;;;;;;21.91;13.04;98588.25;5056258;28;20017;-73
2022/01/03 00:21:03;;;;;;;0.30;0.30;;;;;;;21.89;13.07;98588.56;5072665;28;20196;-73
2022/01/03 00:23:29;;;;;;;0.35;0.35;;;;;;;21.88;13.14;98580.72;5058086;28;20489;-73
2022/01/03 00:26:00;;;;;;;0.32;0.30;;;;;;;21.91;12.99;98586.34;5075708;28;20032;-73
2022/01/03 00:28:37;;;;;;;0.30;0.30;;;;;;;21.98;13.09;98585.13;5076071;28;20470;-73
2022/01/03 00:31:03;;;;;;;0.40;0.40;;;;;;;21.90;13.00;98582.03;5057967;28;20078;-72
2022/01/03 00:33:29;;;;;;;0.40;0.40;;;;;;;21.90;13.05;98575.75;5075882;28;20021;-73
2022/01/03 00:35:59;;;;;;;0.20;0.20;;;;;;;21.91;13.00;98572.75;5075663;28;20024;-72
2022/01/03 00:38:28;;;;;;;0.22;0.22;;;;;;;21.94;13.05;98566.69;5075829;28;20025;-72
2022/01/03 00:40:53;;;;;;;0.30;0.30;;;;;;;21.92;13.07;98563.47;5076324;28;20040;-73
2022/01/03 00:43:19;;;;;;;0.30;0.30;;;;;;;21.93;13.03;98567.78;5075896;28;20028;-73
2022/01/03 00:45:44;;;;;;;0.40;0.40;;;;;;;21.90;13.03;98568.44;5075735;28;20100;-73
2022/01/03 00:48:11;;;;;;;0.30;0.30;;;;;;;21.92;13.03;98568.09;5075483;28;20020;-73
2022/01/03 00:50:36;;;;;;;0.22;0.22;;;;;;;21.88;13.06;98562.47;5075488;28;20127;-73
2022/01/03 00:53:02;;;;;;;0.30;0.30;;;;;;;21.94;13.03;98544.94;5075563;28;20051;-73
2022/01/03 00:55:27;;;;;;;0.20;0.20;;;;;;;21.93;12.97;98543.31;5075190;28;20020;-73
2022/01/03 00:58:08;;;;;;;0.40;0.40;;;;;;;21.95;12.98;98551.16;5075436;28;20036;-73
2022/01/03 01:00:38;;;;;;;0.40;0.40;;;;;;;21.91;13.05;98553.69;5074360;28;20064;-73
2022/01/03 01:03:15;;;;;;;0.30;0.30;;;;;;;21.94;12.98;98549.56;5075404;28;20032;-73
2022/01/03 01:05:44;;;;;;;0.30;0.30;;;;;;;21.92;12.98;98547.16;5073964;28;20415;-72
2022/01/03 01:08:10;;;;;;;0.30;0.30;;;;;;;21.94;13.04;98544.94;5075457;28;20029;-73
2022/01/03 01:10:37;;;;;;;0.28;0.28;;;;;;;21.92;13.03;98544.44;5074216;28;20348;-72
2022/01/03 01:13:03;;;;;;;0.30;0.30;;;;;;;21.91;13.04;98548.25;5076775;28;20043;-73
2022/01/03 01:15:29;;;;;;;0.20;0.20;;;;;;;21.89;13.12;98550.50;5074996;28;20040;-72
2022/01/03 01:17:55;;;;;;;0.28;0.28;;;;;;;21.91;13.22;98545.53;5074793;28;20466;-72
2022/01/03 01:20:21;;;;;;;0.20;0.20;;;;;;;21.91;13.31;98542.03;5064622;28;20029;-72
2022/01/03 01:22:47;;;;;;;0.30;0.30;;;;;;;21.91;13.19;98540.09;5055048;28;20032;-72
2022/01/03 01:27:48;;;;;;;0.20;0.20;;;;;;;21.92;13.25;98541.72;5053759;28;20029;-73
2022/01/03 01:30:18;;;;;;;0.20;0.20;;;;;;;21.91;13.25;98523.78;5053653;28;20025;-73
2022/01/03 01:32:48;;;;;;;0.30;0.30;;;;;;;21.93;13.11;98535.16;5054703;28;20071;-73
2022/01/03 01:35:14;;;;;;;0.30;0.30;;;;;;;21.98;13.18;98528.00;5053492;28;20028;-73
2022/01/03 01:37:40;;;;;;;0.30;0.30;;;;;;;21.91;13.20;98523.78;5053058;28;20074;-73
2022/01/03 01:40:06;;;;;;;0.30;0.30;;;;;;;21.91;13.19;98520.28;5054348;28;20528;-73
2022/01/03 01:42:31;;;;;;;0.32;0.30;;;;;;;21.90;13.29;98524.09;5054160;28;20021;-73
2022/01/03 01:44:57;;;;;;;0.30;0.30;;;;;;;21.89;13.27;98522.50;5054472;28;20078;-73
2022/01/03 01:47:22;;;;;;;0.30;0.30;;;;;;;21.88;13.24;98513.50;5053233;28;20498;-73
2022/01/03 01:49:48;;;;;;;0.30;0.30;;;;;;;21.89;13.30;98517.06;5054219;28;20079;-72
2022/01/03 01:52:21;;;;;;;0.20;0.20;;;;;;;21.88;13.23;98502.63;5054061;28;20100;-72
2022/01/03 01:55:03;;;;;;;0.30;0.30;;;;;;;21.90;13.32;98503.16;5054051;28;20032;-73
2022/01/03 01:57:55;;;;;;;0.20;0.20;;;;;;;21.98;13.22;98500.81;5054156;28;20079;-73
2022/01/03 02:00:20;;;;;;;0.30;0.30;;;;;;;21.89;13.29;98498.81;5054112;28;20037;-73
2022/01/03 02:03:08;;;;;;;0.22;0.22;;;;;;;21.93;13.13;98499.81;5054138;28;20021;-73
2022/01/03 02:05:36;;;;;;;0.30;0.30;;;;;;;21.92;13.22;98498.22;5054150;28;20032;-73
2022/01/03 02:08:20;;;;;;;0.20;0.20;;;;;;;21.90;13.19;98495.00;5054157;28;20044;-73
2022/01/03 02:10:54;;;;;;;0.20;0.20;;;;;;;21.91;13.33;98493.88;5053872;28;20029;-73
2022/01/03 02:13:22;;;;;;;0.20;0.20;;;;;;;21.93;13.19;98494.34;5054110;28;20029;-72
2022/01/03 02:15:57;;;;;;;0.30;0.30;;;;;;;21.94;13.17;98495.19;5052861;28;20064;-73
2022/01/03 02:18:23;;;;;;;0.30;0.30;;;;;;;21.96;13.28;98498.41;5053967;28;20044;-72
2022/01/03 02:20:48;;;;;;;0.20;0.20;;;;;;;21.93;13.26;98486.19;5066861;28;20032;-73
2022/01/03 02:23:14;;;;;;;0.30;0.30;;;;;;;21.90;13.21;98481.41;5073959;28;20039;-72
2022/01/03 02:25:39;;;;;;;0.20;0.20;;;;;;;21.94;13.24;98479.66;5072586;28;20028;-72
2022/01/03 02:28:05;;;;;;;0.20;0.20;;;;;;;21.93;13.24;98471.81;5072283;28;20379;-72
2022/01/03 02:30:31;;;;;;;0.30;0.30;;;;;;;21.93;13.18;98475.31;5073244;28;20029;-72
2022/01/03 02:32:57;;;;;;;0.20;0.20;;;;;;;21.93;13.20;98477.25;5074419;28;20028;-73
2022/01/03 02:35:22;;;;;;;0.20;0.20;;;;;;;21.96;13.11;98473.13;5073679;28;20379;-73
2022/01/03 02:37:48;;;;;;;0.30;0.30;;;;;;;21.94;13.13;98471.50;5073331;28;20077;-73
2022/01/03 02:40:14;;;;;;;0.47;0.25;;;;;;;21.93;13.05;98478.03;5073725;28;20040;-73
2022/01/03 02:42:39;;;;;;;0.30;0.30;;;;;;;21.92;13.10;98476.44;5073159;28;20028;-73
2022/01/03 02:45:06;;;;;;;0.30;0.30;;;;;;;21.91;13.06;98480.28;5073910;28;20040;-73
2022/01/03 02:47:31;;;;;;;0.30;0.30;;;;;;;21.93;13.02;98475.31;5074139;28;20470;-73
2022/01/03 02:49:57;;;;;;;0.20;0.20;;;;;;;21.94;13.03;98471.50;5075138;28;20029;-73
2022/01/03 02:52:22;;;;;;;0.20;0.20;;;;;;;21.99;13.02;98469.75;5075069;28;20360;-73
2022/01/03 02:54:48;;;;;;;0.20;0.20;;;;;;;21.92;13.11;98464.75;5074966;28;20031;-74
2022/01/03 02:57:14;;;;;;;0.30;0.30;;;;;;;21.94;12.95;98473.44;5076560;28;20041;-73
2022/01/03 02:59:39;;;;;;;0.25;0.25;;;;;;;21.92;13.09;98476.44;5078453;28;20029;-74
2022/01/03 03:02:05;;;;;;;0.30;0.30;;;;;;;21.98;12.98;98473.63;5079580;28;20051;-73
2022/01/03 03:04:31;;;;;;;0.30;0.30;;;;;;;21.99;12.82;98472.47;5074502;28;20028;-72
2022/01/03 03:06:56;;;;;;;0.20;0.20;;;;;;;21.96;12.97;98462.25;5073388;28;20020;-73
2022/01/03 03:09:23;;;;;;;0.30;0.30;;;;;;;21.96;12.88;98460.31;5073406;28;20028;-73
2022/01/03 03:11:48;;;;;;;0.30;0.30;;;;;;;21.96;12.82;98454.09;5075253;28;20028;-72
2022/01/03 03:14:13;;;;;;;0.30;0.30;;;;;;;21.94;12.77;98452.47;5077486;28;20044;-73
2022/01/03 03:16:40;;;;;;;0.30;0.30;;;;;;;21.93;12.89;98450.84;5077375;28;20059;-73
2022/01/03 03:19:06;;;;;;;0.20;0.20;;;;;;;21.97;12.90;98450.22;5077543;28;20132;-73
2022/01/03 03:21:31;;;;;;;0.35;0.35;;;;;;;21.97;12.85;98447.50;5058816;28;20102;-73
2022/01/03 03:23:57;;;;;;;0.30;0.30;;;;;;;21.96;12.82;98454.09;5057439;28;20020;-73
2022/01/03 03:26:23;;;;;;;0.30;0.30;;;;;;;21.99;12.82;98448.00;5057180;28;20025;-73
2022/01/03 03:28:48;;;;;;;0.40;0.40;;;;;;;21.97;12.71;98444.78;5057087;28;20035;-73
2022/01/03 03:31:14;;;;;;;0.28;0.28;;;;;;;22.01;12.54;98443.03;5056855;28;20025;-73
2022/01/03 03:33:39;;;;;;;0.30;0.30;;;;;;;21.97;12.76;98440.16;5055559;28;20078;-73
2022/01/03 03:36:05;;;;;;;0.30;0.30;;;;;;;21.92;12.83;98441.09;5057041;28;20086;-73
2022/01/03 03:38:30;;;;;;;0.30;0.30;;;;;;;21.96;12.77;98432.31;5056643;28;20021;-73
2022/01/03 03:40:57;;;;;;;0.20;0.20;;;;;;;21.94;12.79;98425.28;5056896;28;20379;-73
2022/01/03 03:43:22;;;;;;;0.22;0.22;;;;;;;21.92;12.71;98423.97;5056860;28;20111;-73
2022/01/03 03:45:50;;;;;;;0.30;0.30;;;;;;;21.93;12.73;98426.38;5056828;28;20387;-72
2022/01/03 03:48:16;;;;;;;0.30;0.30;;;;;;;21.95;12.71;98428.78;5056861;28;20067;-73
2022/01/03 03:50:42;;;;;;;0.30;0.30;;;;;;;21.97;12.76;98431.19;5056742;28;20032;-72
2022/01/03 03:53:07;;;;;;;0.20;0.20;;;;;;;22.00;12.70;98427.88;5056868;28;20029;-72
2022/01/03 03:55:33;;;;;;;0.30;0.30;;;;;;;21.99;12.68;98429.78;5056436;28;20025;-72
2022/01/03 03:57:59;;;;;;;0.52;0.28;;;;;;;21.99;12.65;98426.25;5056508;28;20095;-72
2022/01/03 04:00:24;;;;;;;0.43;0.43;;;;;;;21.96;12.69;98416.81;5056494;28;20074;-72
2022/01/03 04:02:50;;;;;;;0.30;0.30;;;;;;;21.98;12.63;98424.66;5038752;28;20032;-73
2022/01/03 04:05:15;;;;;;;0.40;0.40;;;;;;;21.98;12.67;98421.94;5056141;28;20088;-72
2022/01/03 04:07:41;;;;;;;0.30;0.30;;;;;;;22.00;12.63;98422.41;5055176;28;20025;-72
2022/01/03 04:10:07;;;;;;;0.40;0.40;;;;;;;21.94;12.56;98419.84;5055362;28;20036;-72
2022/01/03 04:12:33;;;;;;;0.40;0.40;;;;;;;22.02;12.70;98415.53;5055984;28;20123;-72
2022/01/03 04:14:58;;;;;;;0.43;0.43;;;;;;;22.08;12.68;98414.31;5056175;28;20074;-73
2022/01/03 04:17:23;;;;;;;0.38;0.38;;;;;;;22.13;12.59;98418.81;5055940;28;20045;-73
2022/01/03 04:19:49;;;;;;;0.30;0.30;;;;;;;22.15;12.65;98419.31;5059138;28;20080;-72
2022/01/03 04:22:14;;;;;;;0.30;0.30;;;;;;;22.17;12.53;98411.63;5075899;28;20416;-72
2022/01/03 04:24:40;;;;;;;0.40;0.40;;;;;;;22.20;12.48;98419.19;5075872;28;20100;-72
2022/01/03 04:27:05;;;;;;;0.40;0.40;;;;;;;22.22;12.48;98414.22;5076460;28;20040;-72
2022/01/03 04:29:31;;;;;;;0.30;0.30;;;;;;;22.26;12.51;98414.38;5076165;28;20032;-72
2022/01/03 04:31:57;;;;;;;0.30;0.30;;;;;;;22.23;12.46;98410.41;5057692;28;20478;-72
2022/01/03 04:34:22;;;;;;;0.35;0.35;;;;;;;22.30;12.35;98415.38;5076160;28;20078;-73
2022/01/03 04:36:47;;;;;;;2.55;0.40;;;;;;;22.33;12.78;98413.97;5076596;28;20020;-73
2022/01/03 04:39:13;;;;;;;0.40;0.30;;;;;;;22.30;12.70;98412.66;5087665;28;20017;-72
2022/01/03 04:41:38;;;;;;;0.30;0.30;;;;;;;22.38;12.58;98417.34;5089168;28;20037;-72
2022/01/03 04:44:05;;;;;;;0.40;0.40;;;;;;;22.43;12.58;98417.22;5087459;28;20043;-73
2022/01/03 04:46:34;;;;;;;0.55;0.50;;;;;;;22.51;12.41;98404.78;5091164;28;20028;-72
2022/01/03 04:49:00;;;;;;;0.40;0.40;;;;;;;22.53;12.26;98401.75;5091410;28;20028;-72
2022/01/03 04:51:25;;;;;;;1.75;0.40;;;;;;;22.39;12.44;98404.56;5090807;28;20448;-72
2022/01/03 04:53:51;;;;;;;0.75;0.60;;;;;;;22.46;12.67;98396.75;5089234;28;20218;-72
2022/01/03 04:56:16;;;;;;;0.32;0.32;;;;;;;22.57;12.60;98398.06;5076058;28;20493;-71
2022/01/03 04:58:42;;;;;;;0.30;0.30;;;;;;;22.56;12.39;98396.47;5075937;28;20033;-73
2022/01/03 05:01:07;;;;;;;0.40;0.40;;;;;;;22.62;12.28;98395.19;5075574;28;20107;-72
2022/01/03 05:03:33;;;;;;;0.40;0.40;;;;;;;22.62;12.48;98392.47;5075814;28;20103;-72
2022/01/03 05:06:00;;;;;;;0.75;0.43;;;;;;;22.71;12.45;98402.56;5073985;28;20024;-72
2022/01/03 05:08:25;;;;;;;1.75;0.40;;;;;;;22.74;12.23;98396.50;5075290;28;20035;-72
2022/01/03 05:10:50;;;;;;;1.40;0.30;;;;;;;22.74;12.18;98393.78;5075434;28;20036;-72
2022/01/03 05:13:16;;;;;;;1.58;0.40;;;;;;;22.78;12.01;98403.69;5075153;28;20482;-72
2022/01/03 05:15:41;;;;;;;0.30;0.30;;;;;;;22.76;12.19;98402.44;5074880;28;20043;-73
2022/01/03 05:18:07;;;;;;;0.40;0.40;;;;;;;22.82;12.23;98398.44;5074808;28;20485;-73
2022/01/03 05:20:32;;;;;;;0.40;0.40;;;;;;;22.84;11.95;98401.66;5067274;28;20041;-72
2022/01/03 05:22:57;;;;;;;0.22;0.22;;;;;;;22.88;12.07;98397.16;5055134;28;20067;-73
2022/01/03 05:25:23;;;;;;;0.30;0.30;;;;;;;22.86;12.02;98394.75;5054561;28;20028;-73
2022/01/03 05:27:49;;;;;;;0.43;0.43;;;;;;;22.88;12.09;98397.16;5054639;28;20029;-73
2022/01/03 05:30:14;;;;;;;1.55;0.40;;;;;;;22.91;12.16;98402.00;5036050;28;20047;-73
2022/01/03 05:32:39;;;;;;;1.13;0.40;;;;;;;22.91;12.17;98401.19;5054778;28;20398;-73
2022/01/03 05:35:05;;;;;;;6.45;0.80;;;;;;;22.95;12.15;98402.94;5053161;28;20464;-72
2022/01/03 05:37:30;;;;;;;6.35;0.63;;;;;;;22.96;12.11;98404.56;5054540;28;20025;-73
2022/01/03 05:39:56;;;;;;;3.03;0.57;;;;;;;22.95;12.08;98408.38;5054911;28;20070;-72
2022/01/03 05:42:21;;;;;;;1.10;0.32;;;;;;;23.02;11.98;98408.72;5054432;28;20364;-72
2022/01/03 05:44:47;;;;;;;0.75;0.45;;;;;;;23.02;11.88;98408.72;5054580;28;20028;-72
2022/01/03 05:47:12;;;;;;;1.40;0.60;;;;;;;23.03;11.88;98410.34;5054538;28;20028;-72
2022/01/03 05:49:37;;;;;;;0.32;0.32;;;;;;;23.05;12.00;98413.56;5054768;28;20032;-72
2022/01/03 05:52:03;;;;;;;0.30;0.30;;;;;;;23.09;11.83;98410.22;5054978;28;20352;-72
2022/01/03 05:54:29;;;;;;;0.63;0.40;;;;;;;23.06;11.92;98407.00;5054550;28;20025;-72
2022/01/03 05:56:54;;;;;;;0.50;0.38;;;;;;;23.09;11.97;98407.47;5054001;28;20025;-72
2022/01/03 05:59:19;;;;;;;0.35;0.35;;;;;;;23.11;12.11;98405.25;5054412;28;20041;-72
2022/01/03 06:01:46;;;;;;;1.42;0.40;;;;;;;23.11;11.90;98408.78;5053782;28;20100;-73
2022/01/03 06:04:56;;;;;;;0.68;0.50;;;;;;;23.18;11.91;98416.47;5053987;28;20032;-73
2022/01/03 06:07:05;;;;;;;1.77;0.30;;;;;;;23.15;12.24;98412.47;5053263;28;20045;-72
2022/01/03 06:09:30;;;;;;;0.82;0.30;;;;;;;23.17;12.23;98412.16;5052555;28;20029;-72
2022/01/03 06:11:56;;;;;;;1.83;0.30;;;;;;;23.16;12.23;98413.25;5053319;28;20021;-73
2022/01/03 06:14:22;;;;;;;0.35;0.35;;;;;;;23.14;12.33;98413.56;5053774;28;20100;-73
2022/01/03 06:16:48;;;;;;;0.38;0.32;;;;;;;23.18;12.08;98411.00;5053392;28;20116;-73
2022/01/03 06:19:13;;;;;;;0.43;0.40;;;;;;;23.26;12.16;98399.31;5052169;28;20021;-73
2022/01/03 06:21:43;;;;;;;0.60;0.40;;;;;;;23.22;12.12;98404.59;5069556;28;20059;-73
2022/01/03 06:24:09;;;;;;;1.48;0.35;;;;;;;23.25;12.07;98398.53;5073662;28;20052;-73
2022/01/03 06:26:35;;;;;;;0.30;0.30;;;;;;;23.25;12.21;98403.19;5073081;28;20035;-73
2022/01/03 06:29:01;;;;;;;0.30;0.30;;;;;;;23.29;12.03;98398.69;5071782;28;20067;-72
2022/01/03 06:31:26;;;;;;;0.30;0.30;;;;;;;23.33;12.12;98404.28;5073375;28;20025;-73
2022/01/03 06:33:51;;;;;;;1.42;0.40;;;;;;;23.30;12.08;98402.19;5073432;28;20068;-73
2022/01/03 06:36:17;;;;;;;0.35;0.35;;;;;;;23.34;11.86;98403.19;5071938;28;20025;-72
2022/01/03 06:38:42;;;;;;;0.30;0.30;;;;;;;23.28;12.18;98404.44;5071876;28;20040;-72
2022/01/03 06:41:08;;;;;;;0.30;0.30;;;;;;;23.33;12.12;98416.00;5073390;28;20039;-72
2022/01/03 06:43:35;;;;;;;0.40;0.40;;;;;;;23.34;12.21;98409.44;5073578;28;20028;-73
2022/01/03 06:46:01;;;;;;;0.45;0.45;;;;;;;23.36;11.94;98412.63;5073631;28;20032;-72
2022/01/03 06:48:26;;;;;;;0.30;0.30;;;;;;;23.43;11.94;98414.88;5073294;28;20138;-72
2022/01/03 06:50:52;;;;;;;0.75;0.40;;;;;;;23.40;12.00;98408.16;5072956;28;20467;-72
2022/01/03 06:53:17;;;;;;;0.30;0.30;;;;;;;23.44;11.95;98409.09;5072976;28;20043;-72
2022/01/03 06:55:42;;;;;;;1.08;0.40;;;;;;;23.44;11.75;98414.56;5073034;28;20035;-72
2022/01/03 06:58:08;;;;;;;1.20;0.50;;;;;;;23.51;11.80;98414.09;5072581;28;20089;-73
2022/01/03 07:00:33;;;;;;;0.55;0.40;;;;;;;23.46;12.08;98419.69;5071772;28;20041;-72
2022/01/03 07:02:59;;;;;;;0.30;0.30;;;;;;;23.51;11.75;98413.25;5071428;28;20467;-73
2022/01/03 07:05:24;;;;;;;0.40;0.40;;;;;;;23.50;11.80;98419.84;5072578;28;20027;-72
2022/01/03 07:07:49;;;;;;;1.52;0.40;;;;;;;23.45;12.02;98423.53;5073018;28;20554;-73
2022/01/03 07:10:17;;;;;;;0.40;0.40;;;;;;;23.49;11.81;98424.50;5073733;28;20020;-74
2022/01/03 07:12:42;;;;;;;1.65;0.50;;;;;;;23.48;11.97;98425.63;5071808;28;20109;-74
2022/01/03 07:20:35;;;;;;;0.40;0.40;;;;;;;23.55;11.80;98425.94;5067004;28;20095;-73
2022/01/03 07:23:01;;;;;;;1.05;0.40;;;;;;;23.48;11.97;98435.72;5052919;28;20426;-74
2022/01/03 07:25:26;;;;;;;0.40;0.40;;;;;;;23.49;11.77;98442.78;5051784;28;20044;-71
2022/01/03 07:27:52;;;;;;;0.75;0.38;;;;;;;23.37;12.05;98441.50;5052654;28;20021;-72
2022/01/03 07:30:17;;;;;;;0.40;0.40;;;;;;;23.50;11.87;98444.38;5052942;28;20029;-73
2022/01/03 07:32:43;;;;;;;2.17;0.35;;;;;;;23.56;11.79;98432.19;5052228;28;20471;-72
2022/01/03 07:35:12;;;;;;;2.17;0.47;;;;;;;23.57;11.96;98439.25;5052048;28;20033;-72
2022/01/03 07:37:37;;;;;;;1.05;0.40;;;;;;;23.60;11.76;98430.44;5052371;28;20594;-72
2022/01/03 07:40:03;;;;;;;0.50;0.50;;;;;;;23.63;11.96;98427.88;5052712;28;20056;-71
2022/01/03 07:42:28;;;;;;;1.10;0.30;;;;;;;23.62;11.79;98434.44;5053437;28;20060;-73
2022/01/03 07:44:53;;;;;;;0.38;0.38;;;;;;;23.52;11.87;98436.69;5052979;28;20052;-71
2022/01/03 07:47:19;;;;;;;1.83;0.38;;;;;;;23.63;11.99;98436.03;5051490;28;20086;-71
2022/01/03 07:49:44;;;;;;;1.48;0.43;;;;;;;23.66;11.82;98431.84;5052302;28;20477;-71
2022/01/03 07:52:10;;;;;;;1.95;0.50;;;;;;;23.65;11.96;98427.53;5052583;28;20032;-72
2022/01/03 07:54:35;;;;;;;1.08;0.43;;;;;;;23.63;12.01;98433.31;5053999;28;20041;-71
2022/01/03 07:57:00;;;;;;;0.85;0.45;;;;;;;23.62;11.79;98433.63;5054118;28;20024;-71
2022/01/03 07:59:26;;;;;;;1.75;0.55;;;;;;;23.66;11.96;98426.41;5055082;28;20031;-71
2022/01/03 08:01:51;;;;;;;0.50;0.50;;;;;;;23.67;11.84;98429.94;5055891;28;20037;-71
2022/01/03 08:04:17;;;;;;;0.50;0.43;;;;;;;23.69;11.81;98431.22;5055125;28;20083;-71
2022/01/03 08:06:42;;;;;;;0.60;0.50;;;;;;;23.76;11.88;98431.53;5056404;28;20032;-70
2022/01/03 08:09:07;;;;;;;0.52;0.50;;;;;;;23.72;11.89;98427.06;5056022;28;20506;-71
2022/01/03 08:11:33;;;;;;;0.43;0.43;;;;;;;23.76;11.87;98436.19;5057002;28;20033;-71
2022/01/03 08:13:58;;;;;;;1.20;0.70;;;;;;;23.72;11.71;98433.31;5056498;28;20052;-71
2022/01/03 08:16:24;;;;;;;0.32;0.32;;;;;;;23.78;11.93;98423.84;5056650;28;20373;-70
2022/01/03 08:18:49;;;;;;;0.60;0.43;;;;;;;23.84;11.69;98426.44;5056920;28;20026;-70
2022/01/03 08:21:15;;;;;;;1.73;0.50;;;;;;;23.80;11.86;98428.94;5067491;28;20031;-70
2022/01/03 08:23:40;;;;;;;0.30;0.30;;;;;;;23.85;11.69;98428.03;5077442;28;20028;-70
2022/01/03 08:26:06;;;;;;;0.50;0.50;;;;;;;23.85;11.92;98419.84;5077515;28;20027;-70
2022/01/03 08:28:31;;;;;;;1.05;0.60;;;;;;;23.84;11.62;98429.16;5076874;28;20024;-70
2022/01/03 08:30:56;;;;;;;0.55;0.40;;;;;;;23.90;11.65;98430.59;5076870;28;20029;-71
2022/01/03 08:33:22;;;;;;;1.40;0.50;;;;;;;23.88;11.58;98433.63;5077073;28;20036;-70
2022/01/03 08:35:47;;;;;;;1.33;0.50;;;;;;;23.79;11.46;98436.34;5078229;28;20482;-70
2022/01/03 08:38:13;;;;;;;0.40;0.40;;;;;;;23.95;11.61;98431.19;5079044;28;20028;-70
2022/01/03 08:40:39;;;;;;;0.70;0.50;;;;;;;23.96;11.50;98429.31;5077243;28;20028;-70
2022/01/03 08:43:04;;;;;;;1.25;0.50;;;;;;;23.95;11.37;98422.22;5077354;28;20063;-71
2022/01/03 08:45:30;;;;;;;2.08;0.55;;;;;;;24.02;11.25;98429.91;5076105;28;20029;-71
2022/01/03 08:47:55;;;;;;;1.55;0.60;;;;;;;24.02;11.26;98438.91;5076865;28;20424;-71
2022/01/03 08:50:21;;;;;;;1.00;0.60;;;;;;;24.00;11.28;98436.50;5076945;28;20032;-71
2022/01/03 08:52:46;;;;;;;1.25;0.70;;;;;;;23.98;11.31;98440.69;5077242;28;20036;-70
2022/01/03 08:55:12;;;;;;;0.50;0.50;;;;;;;23.95;11.41;98444.06;5076060;28;20028;-70
2022/01/03 08:57:41;;;;;;;1.95;0.60;;;;;;;24.02;11.43;98449.81;5076531;28;20110;-72
2022/01/03 09:00:08;;;;;;;0.68;0.60;;;;;;;24.04;11.36;98447.56;5076038;28;20062;-70
2022/01/03 09:02:33;;;;;;;0.50;0.47;;;;;;;24.04;11.50;98441.31;5076004;28;20035;-72
2022/01/03 09:04:59;;;;;;;0.52;0.50;;;;;;;24.00;11.26;98449.34;5076780;28;20104;-71
2022/01/03 09:07:24;;;;;;;0.85;0.63;;;;;;;24.05;11.39;98449.16;5073962;28;20047;-71
2022/01/03 09:09:49;;;;;;;2.47;1.13;;;;;;;24.10;11.38;98450.94;5078387;28;20024;-69
2022/01/03 09:12:15;;;;;;;1.65;1.15;;;;;;;24.08;11.52;98453.97;5075792;28;20073;-72
2022/01/03 09:14:41;;;;;;;3.13;1.10;;;;;;;24.09;11.59;98460.22;5075649;28;20094;-71
2022/01/03 09:17:06;;;;;;;3.10;1.40;;;;;;;24.14;11.28;98447.22;5074520;28;20040;-71
2022/01/03 09:19:32;;;;;;;2.83;1.20;;;;;;;24.12;11.25;98449.47;5074430;28;20086;-71
2022/01/03 09:22:11;;;;;;;1.80;1.10;;;;;;;24.06;11.38;98439.88;5057920;28;20044;-71
2022/01/03 09:24:53;;;;;;;2.05;1.23;;;;;;;24.18;11.29;98442.72;5055690;28;20033;-71
2022/01/03 09:30:03;;;;;;;3.58;1.02;;;;;;;24.24;11.38;98437.88;5039234;28;20106;-71
2022/01/03 09:32:29;;;;;;;2.00;0.90;;;;;;;24.34;11.26;98444.94;5052318;28;20040;-71
2022/01/03 09:34:57;;;;;;;1.95;1.13;;;;;;;24.36;11.43;98443.47;5054189;28;20511;-71
2022/01/03 09:37:23;;;;;;;1.25;0.60;;;;;;;24.38;11.23;98440.41;5053956;28;20475;-71
2022/01/03 09:39:48;;;;;;;1.33;0.68;;;;;;;24.44;10.91;98441.84;5053939;28;20056;-71
2022/01/03 09:42:14;;;;;;;0.93;0.55;;;;;;;24.44;11.01;98441.84;5053988;28;20460;-71
2022/01/03 09:44:39;;;;;;;0.70;0.55;;;;;;;24.45;10.96;98439.91;5053129;28;20021;-71
2022/01/03 09:47:05;;;;;;;1.00;0.50;;;;;;;24.47;11.06;98435.69;5037103;28;20025;-71
2022/01/03 09:49:34;;;;;;;0.95;0.50;;;;;;;24.51;11.08;98433.16;5054621;28;20525;-71
2022/01/03 09:52:01;;;;;;;1.77;0.50;;;;;;;24.58;11.15;98432.63;5053862;28;20033;-71
2022/01/03 09:54:26;;;;;;;0.73;0.50;;;;;;;24.58;11.09;98435.38;5054383;28;20021;-72
2022/01/03 09:56:51;;;;;;;0.57;0.40;;;;;;;24.57;10.92;98433.78;5052912;28;20031;-71
2022/01/03 09:59:18;;;;;;;0.40;0.40;;;;;;;24.53;11.20;98444.53;5052823;28;20036;-71
2022/01/03 10:01:44;;;;;;;0.93;0.43;;;;;;;24.59;11.04;98431.53;5052922;28;20329;-71
2022/01/03 10:04:10;;;;;;;1.77;0.52;;;;;;;24.66;10.76;98438.06;5054112;28;20060;-72
2022/01/03 10:06:36;;;;;;;0.40;0.40;;;;;;;24.66;11.14;98442.72;5052395;28;20104;-71
2022/01/03 10:09:01;;;;;;;0.50;0.50;;;;;;;24.64;11.05;98434.06;5052050;28;20036;-72
2022/01/03 10:11:30;;;;;;;0.75;0.47;;;;;;;24.62;11.74;98436.34;5052592;28;20025;-72
2022/01/03 10:13:55;;;;;;;1.23;0.55;;;;;;;24.63;11.30;98430.53;5053609;28;20028;-71
2022/01/03 10:16:21;;;;;;;0.45;0.40;;;;;;;24.68;11.02;98437.72;5053598;28;20057;-71
2022/01/03 10:18:47;;;;;;;0.40;0.40;;;;;;;24.66;11.14;98432.59;5053224;28;20039;-71
2022/01/03 10:21:12;;;;;;;0.40;0.40;;;;;;;24.71;10.83;98426.16;5060799;28;20112;-72
2022/01/03 10:23:58;;;;;;;0.40;0.40;;;;;;;24.69;10.85;98428.41;5074087;28;20027;-72
2022/01/03 10:26:23;;;;;;;1.38;0.40;;;;;;;24.73;10.84;98434.81;5072865;28;20130;-72
2022/01/03 10:28:49;;;;;;;0.52;0.50;;;;;;;24.71;10.62;98432.41;5073283;28;20070;-72
2022/01/03 10:31:18;;;;;;;0.30;0.30;;;;;;;24.77;10.72;98435.78;5071902;28;20055;-72
2022/01/03 10:33:44;;;;;;;0.45;0.40;;;;;;;24.77;10.72;98424.84;5071915;28;20032;-71
2022/01/03 10:36:26;;;;;;;0.50;0.50;;;;;;;24.79;10.88;98428.03;5073453;28;20360;-72
2022/01/03 10:38:52;;;;;;;0.43;0.40;;;;;;;24.84;10.73;98419.66;5057701;28;20026;-72
2022/01/03 10:41:21;;;;;;;0.50;0.50;;;;;;;24.84;10.58;98414.19;5073022;28;20475;-70
2022/01/03 10:43:50;;;;;;;0.50;0.50;;;;;;;24.88;10.81;98414.34;5073528;28;20027;-72
2022/01/03 10:46:30;;;;;;;1.15;0.50;;;;;;;24.84;10.76;98408.72;5072875;28;20020;-72
2022/01/03 10:49:21;;;;;;;0.60;0.60;;;;;;;24.93;10.67;98414.16;5072653;28;20024;-72
2022/01/03 10:51:47;;;;;;;1.75;1.10;;;;;;;24.92;10.96;98413.34;5072257;28;20498;-72
2022/01/03 10:54:19;;;;;;;0.98;0.43;;;;;;;24.92;10.66;98410.63;5071649;28;20028;-70
2022/01/03 10:56:47;;;;;;;0.88;0.73;;;;;;;24.89;10.85;98400.34;5072896;28;20096;-72
2022/01/03 10:59:15;;;;;;;2.05;0.52;;;;;;;25.01;10.60;98417.94;5072744;28;20031;-72
2022/01/03 11:02:10;;;;;;;0.50;0.50;;;;;;;25.01;10.59;98416.03;5072286;28;20028;-72
2022/01/03 11:04:56;;;;;;;0.50;0.50;;;;;;;25.02;10.99;98417.59;5072482;28;20459;-72
2022/01/03 11:13:14;;;;;;;0.60;0.60;;;;;;;25.04;10.80;98412.63;5072849;28;20490;-72
2022/01/03 11:15:56;;;;;;;0.40;0.40;;;;;;;25.04;10.86;98417.28;5071076;28;20060;-72
2022/01/03 11:18:24;;;;;;;0.40;0.40;;;;;;;25.04;10.47;98418.09;5072115;28;20024;-73
2022/01/03 11:21:11;;;;;;;0.60;0.60;;;;;;;25.02;10.55;98419.56;5069050;28;20368;-70
2022/01/03 11:23:36;;;;;;;0.63;0.60;;;;;;;25.05;10.67;98418.91;5051413;28;20032;-71
2022/01/03 11:26:10;;;;;;;0.50;0.50;;;;;;;25.06;10.41;98417.75;5052972;28;20104;-74
2022/01/03 11:28:36;;;;;;;0.50;0.50;;;;;;;25.12;10.41;98408.22;5051409;28;20025;-71
2022/01/03 11:31:02;;;;;;;0.50;0.50;;;;;;;25.06;10.54;98410.38;5052223;28;20371;-72
2022/01/03 11:33:28;;;;;;;0.40;0.40;;;;;;;25.08;10.33;98410.84;5056727;28;20061;-73
2022/01/03 11:35:53;;;;;;;1.73;0.60;;;;;;;25.04;10.06;98411.81;5055216;28;20037;-73
2022/01/03 11:38:20;;;;;;;2.47;0.50;;;;;;;25.08;10.20;98407.31;5055171;28;20388;-72
2022/01/03 11:40:46;;;;;;;0.73;0.70;;;;;;;25.05;10.42;98402.50;5038393;28;20029;-73
2022/01/03 11:43:12;;;;;;;0.60;0.60;;;;;;;25.00;10.50;98399.97;5053757;28;20025;-73
2022/01/03 11:45:37;;;;;;;1.25;0.70;;;;;;;25.06;10.48;98404.06;5055959;28;20013;-72
2022/01/03 11:48:03;;;;;;;0.70;0.70;;;;;;;25.17;10.13;98401.78;5054955;28;20031;-72
2022/01/03 11:50:28;;;;;;;1.63;0.50;;;;;;;25.16;10.21;98395.50;5054489;28;20463;-71